sensor_id;sensor_type;location;lat;lon;timestamp;pressure;altitude;pressure_sealevel;temperature;humidity
23363;BME280;11853;48.080;11.960;2022-07-23T00:00:16;94914.84;;;24.59;72.31
23363;BME280;11853;48.080;11.960;2022-07-23T00:02:41;94907.22;;;24.44;72.32
23363;BME280;11853;48.080;11.960;2022-07-23T00:05:07;94913.91;;;24.42;73.21
23363;BME280;11853;48.080;11.960;2022-07-23T00:07:33;94916.41;;;24.43;73.22
23363;BME280;11853;48.080;11.960;2022-07-23T00:09:59;94905.91;;;24.47;73.60
23363;BME280;11853;48.080;11.960;2022-07-23T00:12:25;94907.22;;;24.44;73.57
23363;BME280;11853;48.080;11.960;2022-07-23T00:14:51;94910.97;;;24.43;74.18
23363;BME280;11853;48.080;11.960;2022-07-23T00:17:16;94905.53;;;24.32;74.56
23363;BME280;11853;48.080;11.960;2022-07-23T00:19:42;94885.59;;;24.14;74.99
23363;BME280;11853;48.080;11.960;2022-07-23T00:22:07;94881.47;;;24.12;75.62
23363;BME280;11853;48.080;11.960;2022-07-23T00:24:33;94879.16;;;24.15;75.86
23363;BME280;11853;48.080;11.960;2022-07-23T00:26:58;94886.66;;;24.25;75.33
23363;BME280;11853;48.080;11.960;2022-07-23T00:29:24;94883.25;;;24.18;76.20
23363;BME280;11853;48.080;11.960;2022-07-23T00:31:50;94879.13;;;24.03;77.47
23363;BME280;11853;48.080;11.960;2022-07-23T00:34:15;94886.69;;;24.01;77.69
23363;BME280;11853;48.080;11.960;2022-07-23T00:36:41;94878.44;;;23.96;77.95
23363;BME280;11853;48.080;11.960;2022-07-23T00:39:08;94883.13;;;23.89;79.26
23363;BME280;11853;48.080;11.960;2022-07-23T00:41:34;94887.50;;;23.78;81.54
23363;BME280;11853;48.080;11.960;2022-07-23T00:46:52;94901.81;;;23.67;84.59
23363;BME280;11853;48.080;11.960;2022-07-23T00:49:36;94900.75;;;23.68;85.35
23363;BME280;11853;48.080;11.960;2022-07-23T00:52:02;94894.50;;;23.56;85.92
23363;BME280;11853;48.080;11.960;2022-07-23T00:54:28;94895.09;;;23.58;85.63
23363;BME280;11853;48.080;11.960;2022-07-23T00:56:54;94884.00;;;23.59;85.20
23363;BME280;11853;48.080;11.960;2022-07-23T00:59:19;94898.03;;;23.68;84.11
23363;BME280;11853;48.080;11.960;2022-07-23T01:01:45;94901.09;;;23.60;82.09
23363;BME280;11853;48.080;11.960;2022-07-23T01:04:14;94905.06;;;23.57;81.88
23363;BME280;11853;48.080;11.960;2022-07-23T01:06:40;94901.81;;;23.55;81.80
23363;BME280;11853;48.080;11.960;2022-07-23T01:09:07;94905.69;;;23.59;81.78
23363;BME280;11853;48.080;11.960;2022-07-23T01:11:34;94915.22;;;23.62;81.63
23363;BME280;11853;48.080;11.960;2022-07-23T01:14:11;94916.78;;;23.70;81.19
23363;BME280;11853;48.080;11.960;2022-07-23T01:16:38;94923.50;;;23.67;81.42
23363;BME280;11853;48.080;11.960;2022-07-23T01:19:03;94924.31;;;23.68;81.18
23363;BME280;11853;48.080;11.960;2022-07-23T01:21:34;94934.72;;;23.71;81.86
23363;BME280;11853;48.080;11.960;2022-07-23T01:24:01;94926.94;;;23.74;81.15
23363;BME280;11853;48.080;11.960;2022-07-23T01:26:26;94930.94;;;23.72;81.67
23363;BME280;11853;48.080;11.960;2022-07-23T01:28:52;94944.50;;;23.72;81.24
23363;BME280;11853;48.080;11.960;2022-07-23T01:31:17;94971.38;;;23.73;81.08
23363;BME280;11853;48.080;11.960;2022-07-23T01:33:44;94998.94;;;23.70;81.58
23363;BME280;11853;48.080;11.960;2022-07-23T01:36:10;95014.56;;;23.68;81.88
23363;BME280;11853;48.080;11.960;2022-07-23T01:38:35;95016.44;;;23.68;81.03
23363;BME280;11853;48.080;11.960;2022-07-23T01:41:01;95021.44;;;23.71;80.38
23363;BME280;11853;48.080;11.960;2022-07-23T01:43:26;95013.94;;;23.66;79.63
23363;BME280;11853;48.080;11.960;2022-07-23T01:45:52;95007.00;;;23.58;75.39
23363;BME280;11853;48.080;11.960;2022-07-23T01:48:17;95013.09;;;23.54;74.99
23363;BME280;11853;48.080;11.960;2022-07-23T01:50:43;95018.44;;;23.42;74.34
23363;BME280;11853;48.080;11.960;2022-07-23T01:53:09;95019.97;;;23.38;73.81
23363;BME280;11853;48.080;11.960;2022-07-23T01:55:34;95023.00;;;23.30;71.92
23363;BME280;11853;48.080;11.960;2022-07-23T01:58:00;95029.53;;;23.22;70.34
23363;BME280;11853;48.080;11.960;2022-07-23T02:00:25;95022.53;;;23.14;68.96
23363;BME280;11853;48.080;11.960;2022-07-23T02:02:51;95023.00;;;23.11;68.17
23363;BME280;11853;48.080;11.960;2022-07-23T02:05:16;95028.84;;;23.08;66.31
23363;BME280;11853;48.080;11.960;2022-07-23T02:07:42;95027.06;;;23.02;65.04
23363;BME280;11853;48.080;11.960;2022-07-23T02:10:08;95030.38;;;23.04;64.90
23363;BME280;11853;48.080;11.960;2022-07-23T02:12:33;95026.00;;;23.03;64.51
23363;BME280;11853;48.080;11.960;2022-07-23T02:14:59;95041.88;;;23.00;64.60
23363;BME280;11853;48.080;11.960;2022-07-23T02:17:25;95035.63;;;22.99;63.92
23363;BME280;11853;48.080;11.960;2022-07-23T02:19:50;95030.03;;;22.94;63.50
23363;BME280;11853;48.080;11.960;2022-07-23T02:22:16;95037.72;;;22.97;63.93
23363;BME280;11853;48.080;11.960;2022-07-23T02:24:41;95033.13;;;22.98;63.83
23363;BME280;11853;48.080;11.960;2022-07-23T02:27:07;95041.25;;;22.98;63.22
23363;BME280;11853;48.080;11.960;2022-07-23T02:29:32;95024.81;;;22.99;63.64
23363;BME280;11853;48.080;11.960;2022-07-23T02:31:58;95039.66;;;22.90;63.42
23363;BME280;11853;48.080;11.960;2022-07-23T02:34:23;95028.84;;;22.90;63.82
23363;BME280;11853;48.080;11.960;2022-07-23T02:36:49;95015.06;;;22.91;63.70
23363;BME280;11853;48.080;11.960;2022-07-23T02:39:14;95020.94;;;22.88;64.20
23363;BME280;11853;48.080;11.960;2022-07-23T02:41:40;95012.81;;;22.88;64.34
23363;BME280;11853;48.080;11.960;2022-07-23T02:44:05;95020.94;;;22.88;63.91
23363;BME280;11853;48.080;11.960;2022-07-23T02:46:31;95021.63;;;22.84;64.30
23363;BME280;11853;48.080;11.960;2022-07-23T02:48:57;95008.69;;;22.86;65.11
23363;BME280;11853;48.080;11.960;2022-07-23T02:51:22;94999.53;;;22.87;64.85
23363;BME280;11853;48.080;11.960;2022-07-23T02:53:48;94994.13;;;22.87;65.45
23363;BME280;11853;48.080;11.960;2022-07-23T02:56:13;94997.78;;;22.92;65.30
23363;BME280;11853;48.080;11.960;2022-07-23T02:58:39;94999.53;;;22.87;65.71
23363;BME280;11853;48.080;11.960;2022-07-23T03:01:04;95012.81;;;22.88;66.33
23363;BME280;11853;48.080;11.960;2022-07-23T03:03:30;95010.25;;;22.93;66.35
23363;BME280;11853;48.080;11.960;2022-07-23T03:05:56;95015.31;;;22.90;66.58
23363;BME280;11853;48.080;11.960;2022-07-23T03:08:21;95020.47;;;22.91;66.66
23363;BME280;11853;48.080;11.960;2022-07-23T03:10:47;95031.91;;;22.93;67.46
23363;BME280;11853;48.080;11.960;2022-07-23T03:13:12;95061.31;;;22.90;68.57
23363;BME280;11853;48.080;11.960;2022-07-23T03:15:38;95066.13;;;22.88;68.96
23363;BME280;11853;48.080;11.960;2022-07-23T03:18:04;95074.41;;;22.93;68.74
23363;BME280;11853;48.080;11.960;2022-07-23T03:20:29;95079.88;;;22.86;69.67
23363;BME280;11853;48.080;11.960;2022-07-23T03:22:55;95080.72;;;22.87;69.64
23363;BME280;11853;48.080;11.960;2022-07-23T03:25:20;95076.94;;;22.88;69.53
23363;BME280;11853;48.080;11.960;2022-07-23T03:27:46;95080.47;;;22.88;69.71
23363;BME280;11853;48.080;11.960;2022-07-23T03:30:12;95075.88;;;22.89;70.17
23363;BME280;11853;48.080;11.960;2022-07-23T03:32:37;95081.44;;;22.94;70.35
23363;BME280;11853;48.080;11.960;2022-07-23T03:35:03;95077.75;;;22.95;69.29
23363;BME280;11853;48.080;11.960;2022-07-23T03:37:29;95077.56;;;22.90;69.55
23363;BME280;11853;48.080;11.960;2022-07-23T03:39:55;95075.84;;;22.96;69.24
23363;BME280;11853;48.080;11.960;2022-07-23T03:42:20;95083.53;;;22.92;69.22
23363;BME280;11853;48.080;11.960;2022-07-23T03:44:46;95078.13;;;22.92;69.31
23363;BME280;11853;48.080;11.960;2022-07-23T03:47:11;95068.59;;;22.89;69.59
23363;BME280;11853;48.080;11.960;2022-07-23T03:49:37;95066.28;;;22.93;69.25
23363;BME280;11853;48.080;11.960;2022-07-23T03:52:03;95062.31;;;22.96;69.51
23363;BME280;11853;48.080;11.960;2022-07-23T03:54:28;95068.81;;;22.88;69.00
23363;BME280;11853;48.080;11.960;2022-07-23T03:56:54;95065.91;;;22.89;69.60
23363;BME280;11853;48.080;11.960;2022-07-23T03:59:19;95066.56;;;22.85;69.54
23363;BME280;11853;48.080;11.960;2022-07-23T04:01:45;95060.09;;;22.86;69.30
23363;BME280;11853;48.080;11.960;2022-07-23T04:04:10;95049.97;;;22.81;69.64
23363;BME280;11853;48.080;11.960;2022-07-23T04:06:36;95023.47;;;22.83;67.89
23363;BME280;11853;48.080;11.960;2022-07-23T04:09:02;95007.13;;;22.78;68.23
23363;BME280;11853;48.080;11.960;2022-07-23T04:11:28;94985.06;;;22.75;68.11
23363;BME280;11853;48.080;11.960;2022-07-23T04:13:54;94987.78;;;22.56;69.22
23363;BME280;11853;48.080;11.960;2022-07-23T04:16:19;94978.22;;;22.54;69.28
23363;BME280;11853;48.080;11.960;2022-07-23T04:18:45;94979.13;;;22.47;69.36
23363;BME280;11853;48.080;11.960;2022-07-23T04:21:10;94958.41;;;22.41;69.99
23363;BME280;11853;48.080;11.960;2022-07-23T04:23:36;94931.03;;;22.31;69.93
23363;BME280;11853;48.080;11.960;2022-07-23T04:26:01;94912.91;;;22.32;70.35
23363;BME280;11853;48.080;11.960;2022-07-23T04:28:27;94926.22;;;22.33;70.30
23363;BME280;11853;48.080;11.960;2022-07-23T04:30:55;94949.66;;;22.39;70.33
23363;BME280;11853;48.080;11.960;2022-07-23T04:33:21;94972.34;;;22.38;70.36
23363;BME280;11853;48.080;11.960;2022-07-23T04:35:47;94983.25;;;22.50;70.74
23363;BME280;11853;48.080;11.960;2022-07-23T04:38:12;94985.06;;;22.56;70.95
23363;BME280;11853;48.080;11.960;2022-07-23T04:40:38;94990.69;;;22.55;71.21
23363;BME280;11853;48.080;11.960;2022-07-23T04:43:03;94986.44;;;22.65;71.45
23363;BME280;11853;48.080;11.960;2022-07-23T04:45:30;94992.00;;;22.70;71.21
23363;BME280;11853;48.080;11.960;2022-07-23T04:47:55;94998.47;;;22.69;71.32
23363;BME280;11853;48.080;11.960;2022-07-23T04:50:22;95001.75;;;22.71;71.48
23363;BME280;11853;48.080;11.960;2022-07-23T04:52:48;94985.53;;;22.71;71.38
23363;BME280;11853;48.080;11.960;2022-07-23T04:55:14;94995.06;;;22.74;71.09
23363;BME280;11853;48.080;11.960;2022-07-23T04:57:40;94995.31;;;22.73;70.59
23363;BME280;11853;48.080;11.960;2022-07-23T05:00:07;94991.78;;;22.72;70.08
23363;BME280;11853;48.080;11.960;2022-07-23T05:02:32;94992.19;;;22.69;69.67
23363;BME280;11853;48.080;11.960;2022-07-23T05:04:58;94985.53;;;22.71;69.88
23363;BME280;11853;48.080;11.960;2022-07-23T05:07:24;94984.63;;;22.78;69.19
23363;BME280;11853;48.080;11.960;2022-07-23T05:09:50;94979.06;;;22.73;68.90
23363;BME280;11853;48.080;11.960;2022-07-23T05:12:15;94966.59;;;22.71;69.26
23363;BME280;11853;48.080;11.960;2022-07-23T05:14:41;94971.78;;;22.73;69.14
23363;BME280;11853;48.080;11.960;2022-07-23T05:17:07;94964.28;;;22.75;69.50
23363;BME280;11853;48.080;11.960;2022-07-23T05:19:34;94975.91;;;22.76;68.27
23363;BME280;11853;48.080;11.960;2022-07-23T05:21:59;94966.75;;;22.77;70.13
23363;BME280;11853;48.080;11.960;2022-07-23T05:24:25;94960.41;;;22.83;70.64
23363;BME280;11853;48.080;11.960;2022-07-23T05:26:51;94959.50;;;22.89;70.50
23363;BME280;11853;48.080;11.960;2022-07-23T05:29:17;94954.94;;;22.89;69.96
23363;BME280;11853;48.080;11.960;2022-07-23T05:31:42;94950.13;;;22.91;69.27
23363;BME280;11853;48.080;11.960;2022-07-23T05:34:08;94948.66;;;22.96;68.76
23363;BME280;11853;48.080;11.960;2022-07-23T05:36:33;94949.03;;;22.99;68.14
23363;BME280;11853;48.080;11.960;2022-07-23T05:38:59;94948.56;;;23.02;68.05
23363;BME280;11853;48.080;11.960;2022-07-23T05:41:24;94946.00;;;23.07;69.04
23363;BME280;11853;48.080;11.960;2022-07-23T05:43:50;94959.69;;;23.12;71.29
23363;BME280;11853;48.080;11.960;2022-07-23T05:46:15;94959.22;;;23.15;72.12
23363;BME280;11853;48.080;11.960;2022-07-23T05:48:41;94953.81;;;23.15;72.24
23363;BME280;11853;48.080;11.960;2022-07-23T05:51:22;94962.31;;;23.19;72.78
23363;BME280;11853;48.080;11.960;2022-07-23T05:53:49;94965.84;;;23.20;72.73
23363;BME280;11853;48.080;11.960;2022-07-23T05:56:15;94959.00;;;23.17;72.05
23363;BME280;11853;48.080;11.960;2022-07-23T05:58:41;94967.66;;;23.07;72.24
23363;BME280;11853;48.080;11.960;2022-07-23T06:01:07;94956.47;;;23.04;72.24
23363;BME280;11853;48.080;11.960;2022-07-23T06:03:32;94967.50;;;23.02;72.22
23363;BME280;11853;48.080;11.960;2022-07-23T06:05:58;94958.94;;;23.05;72.58
23363;BME280;11853;48.080;11.960;2022-07-23T06:08:23;94966.84;;;23.07;72.63
23363;BME280;11853;48.080;11.960;2022-07-23T06:10:49;94976.00;;;23.06;73.46
23363;BME280;11853;48.080;11.960;2022-07-23T06:13:14;94976.97;;;23.11;74.32
23363;BME280;11853;48.080;11.960;2022-07-23T06:15:42;94984.06;;;23.12;76.00
23363;BME280;11853;48.080;11.960;2022-07-23T06:18:07;94982.53;;;23.16;76.36
23363;BME280;11853;48.080;11.960;2022-07-23T06:20:33;94985.84;;;23.19;76.80
23363;BME280;11853;48.080;11.960;2022-07-23T06:22:59;94984.41;;;23.16;75.40
23363;BME280;11853;48.080;11.960;2022-07-23T06:25:24;94989.59;;;23.17;75.61
23363;BME280;11853;48.080;11.960;2022-07-23T06:27:50;94994.19;;;23.17;76.13
23363;BME280;11853;48.080;11.960;2022-07-23T06:30:16;95002.41;;;23.10;76.46
23363;BME280;11853;48.080;11.960;2022-07-23T06:32:42;95004.88;;;23.12;76.73
23363;BME280;11853;48.080;11.960;2022-07-23T06:35:08;95010.44;;;23.17;76.04
23363;BME280;11853;48.080;11.960;2022-07-23T06:37:34;95007.72;;;23.17;76.16
23363;BME280;11853;48.080;11.960;2022-07-23T06:39:59;95001.28;;;23.18;76.04
23363;BME280;11853;48.080;11.960;2022-07-23T06:42:25;95004.44;;;23.15;76.32
23363;BME280;11853;48.080;11.960;2022-07-23T06:44:50;95001.28;;;23.18;77.04
23363;BME280;11853;48.080;11.960;2022-07-23T06:47:16;95014.56;;;23.20;76.78
23363;BME280;11853;48.080;11.960;2022-07-23T06:49:41;95011.69;;;23.14;76.21
23363;BME280;11853;48.080;11.960;2022-07-23T06:52:07;95005.09;;;23.10;76.97
23363;BME280;11853;48.080;11.960;2022-07-23T06:54:33;95011.69;;;23.14;77.42
23363;BME280;11853;48.080;11.960;2022-07-23T06:56:59;95010.66;;;23.15;77.67
23363;BME280;11853;48.080;11.960;2022-07-23T06:59:24;95014.88;;;23.11;78.04
23363;BME280;11853;48.080;11.960;2022-07-23T07:01:50;95024.50;;;23.07;78.29
23363;BME280;11853;48.080;11.960;2022-07-23T07:04:15;95021.91;;;22.94;79.23
23363;BME280;11853;48.080;11.960;2022-07-23T07:06:41;95025.06;;;22.91;79.00
23363;BME280;11853;48.080;11.960;2022-07-23T07:09:06;95022.19;;;22.86;80.10
23363;BME280;11853;48.080;11.960;2022-07-23T07:11:32;95019.41;;;22.99;77.95
23363;BME280;11853;48.080;11.960;2022-07-23T07:13:58;95031.19;;;22.86;78.70
23363;BME280;11853;48.080;11.960;2022-07-23T07:16:23;95032.91;;;22.81;78.02
23363;BME280;11853;48.080;11.960;2022-07-23T07:18:49;95031.66;;;22.77;77.03
23363;BME280;11853;48.080;11.960;2022-07-23T07:21:14;95031.91;;;22.75;77.17
23363;BME280;11853;48.080;11.960;2022-07-23T07:23:40;95024.16;;;22.79;76.39
23363;BME280;11853;48.080;11.960;2022-07-23T07:26:06;95014.31;;;22.84;76.42
23363;BME280;11853;48.080;11.960;2022-07-23T07:28:31;95019.38;;;22.81;76.60
23363;BME280;11853;48.080;11.960;2022-07-23T07:30:57;95027.53;;;22.74;76.17
23363;BME280;11853;48.080;11.960;2022-07-23T07:33:22;95029.22;;;22.75;76.52
23363;BME280;11853;48.080;11.960;2022-07-23T07:35:48;95027.09;;;22.77;76.31
23363;BME280;11853;48.080;11.960;2022-07-23T07:38:14;95029.59;;;22.79;76.54
23363;BME280;11853;48.080;11.960;2022-07-23T07:40:39;95029.59;;;22.79;75.95
23363;BME280;11853;48.080;11.960;2022-07-23T07:43:05;95018.91;;;22.84;76.72
23363;BME280;11853;48.080;11.960;2022-07-23T07:45:31;95012.44;;;22.85;76.53
23363;BME280;11853;48.080;11.960;2022-07-23T07:47:57;95027.16;;;22.89;76.34
23363;BME280;11853;48.080;11.960;2022-07-23T07:50:23;95023.16;;;22.98;76.76
23363;BME280;11853;48.080;11.960;2022-07-23T07:52:48;95024.47;;;22.89;77.26
23363;BME280;11853;48.080;11.960;2022-07-23T07:55:14;95033.56;;;22.94;76.97
23363;BME280;11853;48.080;11.960;2022-07-23T07:57:40;95048.78;;;22.96;77.57
23363;BME280;11853;48.080;11.960;2022-07-23T08:00:08;95052.94;;;22.98;77.48
23363;BME280;11853;48.080;11.960;2022-07-23T08:02:45;95057.09;;;22.94;77.81
23363;BME280;11853;48.080;11.960;2022-07-23T08:05:11;95046.47;;;22.99;78.22
23363;BME280;11853;48.080;11.960;2022-07-23T08:07:37;95051.78;;;23.06;78.52
23363;BME280;11853;48.080;11.960;2022-07-23T08:10:06;95063.59;;;23.11;78.79
23363;BME280;11853;48.080;11.960;2022-07-23T08:12:48;95066.47;;;23.16;79.01
23363;BME280;11853;48.080;11.960;2022-07-23T08:15:15;95060.38;;;23.21;79.45
23363;BME280;11853;48.080;11.960;2022-07-23T08:17:42;95068.06;;;23.24;78.90
23363;BME280;11853;48.080;11.960;2022-07-23T08:20:09;95055.34;;;23.25;79.29
23363;BME280;11853;48.080;11.960;2022-07-23T08:22:47;95057.38;;;23.29;79.06
23363;BME280;11853;48.080;11.960;2022-07-23T08:25:14;95061.72;;;23.30;79.15
23363;BME280;11853;48.080;11.960;2022-07-23T08:27:40;95061.47;;;23.32;79.18
23363;BME280;11853;48.080;11.960;2022-07-23T08:30:06;95063.16;;;23.33;79.10
23363;BME280;11853;48.080;11.960;2022-07-23T08:32:32;95065.25;;;23.31;78.78
23363;BME280;11853;48.080;11.960;2022-07-23T08:34:58;95065.56;;;23.23;78.87
23363;BME280;11853;48.080;11.960;2022-07-23T08:37:23;95064.72;;;23.22;78.93
23363;BME280;11853;48.080;11.960;2022-07-23T08:39:49;95066.16;;;23.25;79.06
23363;BME280;11853;48.080;11.960;2022-07-23T08:42:15;95071.34;;;23.26;79.85
23363;BME280;11853;48.080;11.960;2022-07-23T08:44:45;95072.41;;;23.25;79.33
23363;BME280;11853;48.080;11.960;2022-07-23T08:47:11;95064.28;;;23.25;79.18
23363;BME280;11853;48.080;11.960;2022-07-23T08:49:38;95077.34;;;23.28;78.63
23363;BME280;11853;48.080;11.960;2022-07-23T08:52:04;95087.38;;;23.28;79.23
23363;BME280;11853;48.080;11.960;2022-07-23T08:54:31;95079.84;;;23.30;78.97
23363;BME280;11853;48.080;11.960;2022-07-23T08:56:57;95082.31;;;23.31;80.13
23363;BME280;11853;48.080;11.960;2022-07-23T08:59:22;95092.94;;;23.33;79.62
23363;BME280;11853;48.080;11.960;2022-07-23T09:01:48;95096.84;;;23.37;79.82
23363;BME280;11853;48.080;11.960;2022-07-23T09:04:14;95087.69;;;23.38;79.90
23363;BME280;11853;48.080;11.960;2022-07-23T09:06:39;95090.97;;;23.40;79.87
23363;BME280;11853;48.080;11.960;2022-07-23T09:09:18;95091.94;;;23.46;80.04
23363;BME280;11853;48.080;11.960;2022-07-23T09:11:48;95091.28;;;23.50;79.68
23363;BME280;11853;48.080;11.960;2022-07-23T09:14:42;95091.19;;;23.57;79.60
23363;BME280;11853;48.080;11.960;2022-07-23T09:17:11;95090.50;;;23.61;78.51
23363;BME280;11853;48.080;11.960;2022-07-23T09:19:37;95084.03;;;23.63;78.28
23363;BME280;11853;48.080;11.960;2022-07-23T09:22:23;95089.00;;;23.66;78.45
23363;BME280;11853;48.080;11.960;2022-07-23T09:25:09;95094.78;;;23.69;78.62
23363;BME280;11853;48.080;11.960;2022-07-23T09:27:58;95101.03;;;23.70;78.58
23363;BME280;11853;48.080;11.960;2022-07-23T09:30:30;95103.16;;;23.68;78.18
23363;BME280;11853;48.080;11.960;2022-07-23T09:33:13;95120.63;;;23.72;77.91
23363;BME280;11853;48.080;11.960;2022-07-23T09:38:15;95113.00;;;23.80;77.30
23363;BME280;11853;48.080;11.960;2022-07-23T09:40:41;95119.28;;;23.81;76.91
23363;BME280;11853;48.080;11.960;2022-07-23T09:43:07;95121.53;;;23.84;76.95
23363;BME280;11853;48.080;11.960;2022-07-23T09:45:32;95120.47;;;23.85;76.71
23363;BME280;11853;48.080;11.960;2022-07-23T09:48:15;95116.69;;;23.86;76.80
23363;BME280;11853;48.080;11.960;2022-07-23T09:50:42;95118.94;;;23.89;76.67
23363;BME280;11853;48.080;11.960;2022-07-23T09:53:09;95115.19;;;23.90;76.92
23363;BME280;11853;48.080;11.960;2022-07-23T09:55:36;95102.09;;;23.87;76.84
23363;BME280;11853;48.080;11.960;2022-07-23T09:58:06;95108.34;;;23.88;76.84
23363;BME280;11853;48.080;11.960;2022-07-23T10:00:38;95098.31;;;23.88;77.36
23363;BME280;11853;48.080;11.960;2022-07-23T10:03:06;95096.81;;;23.92;77.78
23363;BME280;11853;48.080;11.960;2022-07-23T10:05:32;95100.34;;;23.93;77.71
23363;BME280;11853;48.080;11.960;2022-07-23T10:08:01;95107.19;;;23.95;77.12
23363;BME280;11853;48.080;11.960;2022-07-23T10:10:27;95117.13;;;24.01;77.42
23363;BME280;11853;48.080;11.960;2022-07-23T10:12:55;95105.50;;;24.13;77.03
23363;BME280;11853;48.080;11.960;2022-07-23T10:15:40;95109.91;;;24.37;79.14
23363;BME280;11853;48.080;11.960;2022-07-23T10:18:08;95105.16;;;24.63;79.42
23363;BME280;11853;48.080;11.960;2022-07-23T10:20:35;95096.78;;;24.76;77.76
23363;BME280;11853;48.080;11.960;2022-07-23T10:23:24;95097.03;;;24.98;74.80
23363;BME280;11853;48.080;11.960;2022-07-23T10:26:20;95095.97;;;25.11;73.87
23363;BME280;11853;48.080;11.960;2022-07-23T10:31:49;95085.81;;;25.18;71.47
23363;BME280;11853;48.080;11.960;2022-07-23T10:34:25;95089.47;;;25.24;70.60
23363;BME280;11853;48.080;11.960;2022-07-23T10:36:58;95086.88;;;25.29;70.79
23363;BME280;11853;48.080;11.960;2022-07-23T10:39:31;95081.34;;;25.35;70.40
23363;BME280;11853;48.080;11.960;2022-07-23T10:42:12;95077.41;;;25.43;68.87
23363;BME280;11853;48.080;11.960;2022-07-23T10:44:47;95067.56;;;25.54;67.39
23363;BME280;11853;48.080;11.960;2022-07-23T10:47:28;95061.38;;;25.70;66.71
23363;BME280;11853;48.080;11.960;2022-07-23T10:50:27;95062.88;;;25.78;66.64
23363;BME280;11853;48.080;11.960;2022-07-23T10:53:10;95058.63;;;25.82;66.56
23363;BME280;11853;48.080;11.960;2022-07-23T10:55:51;95046.91;;;25.81;64.22
23363;BME280;11853;48.080;11.960;2022-07-23T10:58:21;95054.97;;;25.76;64.06
23363;BME280;11853;48.080;11.960;2022-07-23T11:00:47;95048.72;;;25.76;65.78
23363;BME280;11853;48.080;11.960;2022-07-23T11:03:29;95046.81;;;25.76;66.76
23363;BME280;11853;48.080;11.960;2022-07-23T11:05:54;95051.16;;;25.77;67.14
23363;BME280;11853;48.080;11.960;2022-07-23T11:08:20;95048.72;;;25.76;65.46
23363;BME280;11853;48.080;11.960;2022-07-23T11:26:53;95056.50;;;25.72;63.95
23363;BME280;11853;48.080;11.960;2022-07-23T11:31:59;95056.13;;;25.80;65.35
23363;BME280;11853;48.080;11.960;2022-07-23T11:37:05;95054.47;;;25.79;64.09
23363;BME280;11853;48.080;11.960;2022-07-23T11:39:31;95056.28;;;25.74;63.65
23363;BME280;11853;48.080;11.960;2022-07-23T11:41:59;95058.41;;;25.72;63.81
23363;BME280;11853;48.080;11.960;2022-07-23T11:44:30;95060.31;;;25.71;63.73
23363;BME280;11853;48.080;11.960;2022-07-23T11:46:56;95057.00;;;25.69;65.10
23363;BME280;11853;48.080;11.960;2022-07-23T11:49:23;95053.13;;;25.65;65.53
23363;BME280;11853;48.080;11.960;2022-07-23T11:52:08;95053.84;;;25.60;65.50
23363;BME280;11853;48.080;11.960;2022-07-23T11:54:35;95047.25;;;25.56;65.56
23363;BME280;11853;48.080;11.960;2022-07-23T11:57:02;95047.38;;;25.50;65.22
23363;BME280;11853;48.080;11.960;2022-07-23T11:59:31;95045.38;;;25.45;63.20
23363;BME280;11853;48.080;11.960;2022-07-23T12:01:58;95049.41;;;25.43;63.74
23363;BME280;11853;48.080;11.960;2022-07-23T12:04:36;95049.06;;;25.39;63.91
23363;BME280;11853;48.080;11.960;2022-07-23T12:07:02;95051.19;;;25.37;64.70
23363;BME280;11853;48.080;11.960;2022-07-23T12:09:28;95051.44;;;25.35;64.96
23363;BME280;11853;48.080;11.960;2022-07-23T12:12:01;95056.88;;;25.35;65.76
23363;BME280;11853;48.080;11.960;2022-07-23T12:14:27;95057.69;;;25.36;66.41
23363;BME280;11853;48.080;11.960;2022-07-23T12:17:11;95048.25;;;25.38;67.40
23363;BME280;11853;48.080;11.960;2022-07-23T12:19:36;95046.09;;;25.40;67.60
23363;BME280;11853;48.080;11.960;2022-07-23T12:22:02;95052.72;;;25.45;67.77
23363;BME280;11853;48.080;11.960;2022-07-23T12:24:28;95051.03;;;25.44;68.08
23363;BME280;11853;48.080;11.960;2022-07-23T12:27:12;95041.03;;;25.44;67.76
23363;BME280;11853;48.080;11.960;2022-07-23T12:29:39;95041.59;;;25.46;67.34
23363;BME280;11853;48.080;11.960;2022-07-23T12:32:42;95040.53;;;25.47;67.25
23363;BME280;11853;48.080;11.960;2022-07-23T12:35:08;95041.84;;;25.45;67.75
23363;BME280;11853;48.080;11.960;2022-07-23T12:37:42;95034.75;;;25.44;67.32
23363;BME280;11853;48.080;11.960;2022-07-23T12:40:29;95036.91;;;25.42;67.31
23363;BME280;11853;48.080;11.960;2022-07-23T12:43:19;95044.13;;;25.36;67.52
23363;BME280;11853;48.080;11.960;2022-07-23T12:45:50;95039.97;;;25.33;66.47
23363;BME280;11853;48.080;11.960;2022-07-23T12:48:30;95042.00;;;25.26;65.46
23363;BME280;11853;48.080;11.960;2022-07-23T12:51:14;95039.75;;;25.23;66.32
23363;BME280;11853;48.080;11.960;2022-07-23T12:53:45;95042.34;;;25.18;66.46
23363;BME280;11853;48.080;11.960;2022-07-23T12:58:51;95038.94;;;25.11;65.93
23363;BME280;11853;48.080;11.960;2022-07-23T13:04:08;95044.59;;;25.09;66.21
23363;BME280;11853;48.080;11.960;2022-07-23T13:06:54;95044.84;;;25.08;66.22
23363;BME280;11853;48.080;11.960;2022-07-23T13:09:26;95043.44;;;25.05;66.16
23363;BME280;11853;48.080;11.960;2022-07-23T13:11:54;95050.63;;;25.00;66.40
23363;BME280;11853;48.080;11.960;2022-07-23T13:14:21;95046.84;;;25.01;66.32
23363;BME280;11853;48.080;11.960;2022-07-23T13:16:48;95051.72;;;24.99;65.83
23363;BME280;11853;48.080;11.960;2022-07-23T13:19:15;95048.88;;;24.93;66.00
23363;BME280;11853;48.080;11.960;2022-07-23T13:21:41;95051.59;;;24.93;66.01
23363;BME280;11853;48.080;11.960;2022-07-23T13:24:11;95062.44;;;24.93;66.45
23363;BME280;11853;48.080;11.960;2022-07-23T13:26:38;95058.31;;;24.91;66.04
23363;BME280;11853;48.080;11.960;2022-07-23T13:29:04;95061.25;;;24.89;66.37